Time;durP1;ratioP1;P1;durP2;ratioP2;P2;SDS_P1;SDS_P2;PMS_P1;PMS_P2;Temp;Humidity;BMP_temperature;BMP_pressure;BME280_temperature;BME280_humidity;BME280_pressure;Samples;Min_cycle;Max_cycle;Signal;HPM_P1;HPM_P2
2023/04/18 00:00:23;;;;;;;7.43;3.45;;;15.70;63.00;;;;;;5054438;28;20041;-70
2023/04/18 00:02:52;;;;;;;6.43;3.40;;;15.70;63.00;;;;;;5054260;28;20550;-69
2023/04/18 00:05:19;;;;;;;6.57;3.40;;;15.70;63.00;;;;;;5054034;28;20043;-71
2023/04/18 00:07:45;;;;;;;5.63;3.60;;;15.70;63.00;;;;;;5053906;28;20564;-69
2023/04/18 00:10:11;;;;;;;4.72;2.83;;;15.70;63.20;;;;;;5053838;28;20037;-70
2023/04/18 00:12:36;;;;;;;7.78;4.28;;;15.70;63.20;;;;;;5053715;28;20025;-70
2023/04/18 00:15:04;;;;;;;7.47;3.55;;;15.70;63.40;;;;;;5053777;28;20509;-70
2023/04/18 00:17:31;;;;;;;8.63;3.80;;;15.60;63.50;;;;;;5053352;28;20079;-69
2023/04/18 00:19:57;;;;;;;7.60;3.42;;;15.50;63.80;;;;;;5050405;28;20033;-70
2023/04/18 00:22:24;;;;;;;8.25;4.20;;;15.50;63.80;;;;;;5053696;28;20163;-70
2023/04/18 00:24:50;;;;;;;8.65;3.63;;;15.50;63.90;;;;;;5053540;28;20486;-71
2023/04/18 00:27:20;;;;;;;7.70;3.85;;;15.50;63.80;;;;;;5053705;28;20033;-69
2023/04/18 00:29:48;;;;;;;6.07;3.53;;;15.50;64.00;;;;;;5053779;28;20037;-70
2023/04/18 00:32:15;;;;;;;5.90;3.53;;;15.50;64.80;;;;;;5053373;28;20470;-70
2023/04/18 00:34:41;;;;;;;7.53;3.10;;;15.40;64.10;;;;;;5053427;28;20506;-70
2023/04/18 00:37:06;;;;;;;6.35;3.25;;;15.40;64.30;;;;;;5053403;28;20111;-70
2023/04/18 00:39:35;;;;;;;7.70;3.80;;;15.40;64.50;;;;;;5053367;28;20418;-70
2023/04/18 00:42:02;;;;;;;6.07;3.45;;;15.40;64.70;;;;;;5053696;28;20037;-70
2023/04/18 00:44:29;;;;;;;5.72;3.35;;;15.30;64.50;;;;;;5053337;28;20033;-69
2023/04/18 00:46:54;;;;;;;6.82;3.38;;;15.30;64.90;;;;;;5053523;28;20112;-71
2023/04/18 00:49:22;;;;;;;6.30;3.50;;;15.30;65.00;;;;;;5053414;28;20053;-69
2023/04/18 00:51:48;;;;;;;6.65;3.08;;;15.30;65.10;;;;;;5053169;28;20032;-70
2023/04/18 00:54:17;;;;;;;5.25;3.47;;;15.20;65.00;;;;;;5053552;28;20048;-69
2023/04/18 00:56:44;;;;;;;6.03;3.20;;;15.20;65.10;;;;;;5052886;28;20043;-69
2023/04/18 00:59:10;;;;;;;6.75;2.97;;;15.20;65.10;;;;;;5052832;28;20033;-70
2023/04/18 01:01:39;;;;;;;6.53;3.40;;;15.20;65.40;;;;;;5053093;28;20086;-70
2023/04/18 01:04:05;;;;;;;6.75;3.80;;;15.20;65.40;;;;;;5052733;28;20408;-70
2023/04/18 01:06:32;;;;;;;5.80;3.33;;;15.20;65.50;;;;;;5051299;28;20386;-69
2023/04/18 01:08:57;;;;;;;5.97;3.30;;;15.20;65.90;;;;;;5052731;28;20494;-70
2023/04/18 01:11:24;;;;;;;5.60;3.30;;;15.20;65.70;;;;;;5052994;28;20059;-70
2023/04/18 01:14:02;;;;;;;6.75;3.50;;;15.20;65.90;;;;;;5052745;28;20059;-70
2023/04/18 01:16:31;;;;;;;6.15;3.38;;;15.10;66.60;;;;;;5052722;28;20036;-70
2023/04/18 01:19:00;;;;;;;8.98;3.95;;;15.10;65.90;;;;;;5052427;28;20434;-70
2023/04/18 01:21:30;;;;;;;6.80;3.70;;;15.10;66.90;;;;;;5052369;28;20517;-69
2023/04/18 01:24:01;;;;;;;5.72;3.15;;;15.10;66.20;;;;;;5072498;28;20112;-70
2023/04/18 01:26:28;;;;;;;4.85;2.95;;;15.00;66.30;;;;;;5072525;28;20398;-69
2023/04/18 01:28:54;;;;;;;5.70;3.08;;;15.00;66.40;;;;;;5071628;28;20029;-70
2023/04/18 01:31:20;;;;;;;13.77;3.45;;;15.00;66.70;;;;;;5072020;28;20068;-70
2023/04/18 01:33:45;;;;;;;5.35;3.25;;;15.00;66.70;;;;;;5072379;28;20115;-70
2023/04/18 01:36:11;;;;;;;5.45;3.60;;;15.00;66.60;;;;;;5072251;28;20116;-69
2023/04/18 01:38:37;;;;;;;6.10;3.50;;;14.90;66.80;;;;;;5054247;28;20044;-71
2023/04/18 01:41:02;;;;;;;7.18;3.47;;;14.90;66.80;;;;;;5072344;28;20379;-69
2023/04/18 01:43:28;;;;;;;7.32;3.28;;;14.90;67.40;;;;;;5072392;28;20025;-70
2023/04/18 01:45:54;;;;;;;8.05;3.50;;;15.00;67.70;;;;;;5072171;28;20032;-70
2023/04/18 01:48:20;;;;;;;6.78;3.53;;;15.00;68.30;;;;;;5072544;28;20487;-70
2023/04/18 01:50:45;;;;;;;7.53;3.75;;;15.00;68.00;;;;;;5072373;28;20033;-70
2023/04/18 01:53:11;;;;;;;5.05;3.30;;;14.90;67.50;;;;;;5072380;28;20032;-70
2023/04/18 01:55:36;;;;;;;5.43;3.15;;;14.90;67.70;;;;;;5071954;28;20091;-70
2023/04/18 01:58:02;;;;;;;7.15;3.78;;;14.90;68.00;;;;;;5072134;28;20039;-68
2023/04/18 02:00:28;;;;;;;6.18;3.38;;;14.90;68.10;;;;;;5072086;28;20036;-69
2023/04/18 02:02:53;;;;;;;6.45;4.10;;;14.90;68.20;;;;;;5071965;28;20036;-69
2023/04/18 02:05:19;;;;;;;7.90;4.05;;;14.80;68.30;;;;;;5071977;28;20021;-69
2023/04/18 02:07:46;;;;;;;4.78;3.03;;;14.80;68.60;;;;;;5072115;28;20060;-70
2023/04/18 02:10:12;;;;;;;6.00;3.45;;;14.70;68.60;;;;;;5072281;28;20047;-70
2023/04/18 02:12:37;;;;;;;6.82;3.45;;;14.60;68.90;;;;;;5072050;28;20451;-68
2023/04/18 02:15:03;;;;;;;5.30;3.20;;;14.60;69.20;;;;;;5071956;28;20489;-69
2023/04/18 02:17:29;;;;;;;5.47;3.22;;;14.60;69.40;;;;;;5072121;28;20363;-70
2023/04/18 02:19:55;;;;;;;6.25;3.85;;;14.60;69.60;;;;;;5072283;28;20043;-69
2023/04/18 02:22:20;;;;;;;6.05;3.20;;;14.50;69.20;;;;;;5072012;28;20032;-69
2023/04/18 02:24:46;;;;;;;4.78;3.15;;;14.60;69.60;;;;;;5072196;28;20084;-69
2023/04/18 02:27:12;;;;;;;5.68;3.70;;;14.50;70.10;;;;;;5071865;28;20046;-69
2023/04/18 02:29:38;;;;;;;7.13;3.50;;;14.50;70.00;;;;;;5071984;28;20062;-69
2023/04/18 02:32:04;;;;;;;6.72;3.53;;;14.50;70.00;;;;;;5054073;28;20059;-69
2023/04/18 02:34:31;;;;;;;9.10;3.72;;;14.50;70.00;;;;;;5071849;28;20373;-70
2023/04/18 02:36:56;;;;;;;6.55;3.30;;;14.50;70.20;;;;;;5071904;28;20098;-69
2023/04/18 02:39:22;;;;;;;8.93;3.80;;;14.50;70.20;;;;;;5051533;28;20428;-70
2023/04/18 02:41:48;;;;;;;4.65;3.38;;;14.50;70.60;;;;;;5075896;28;20062;-71
2023/04/18 02:44:14;;;;;;;8.40;3.92;;;14.50;70.50;;;;;;5075302;28;20486;-69
2023/04/18 02:46:39;;;;;;;6.00;3.53;;;14.50;70.60;;;;;;5075819;28;20390;-71
2023/04/18 02:49:06;;;;;;;6.28;3.60;;;14.50;70.80;;;;;;5075598;28;20032;-70
2023/04/18 02:51:31;;;;;;;6.40;3.65;;;14.50;71.00;;;;;;5057268;28;20042;-69
2023/04/18 02:53:57;;;;;;;10.23;4.07;;;14.50;71.20;;;;;;5075540;28;20029;-71
2023/04/18 02:56:23;;;;;;;4.93;3.50;;;14.40;71.20;;;;;;5075143;28;20048;-69
2023/04/18 02:58:48;;;;;;;5.07;3.28;;;14.40;71.40;;;;;;5075423;28;20416;-70
2023/04/18 03:01:16;;;;;;;5.95;3.30;;;14.40;71.10;;;;;;5075084;28;20534;-69
2023/04/18 03:03:42;;;;;;;7.72;3.72;;;14.40;71.20;;;;;;5075153;28;20033;-70
2023/04/18 03:06:07;;;;;;;6.07;3.60;;;14.50;71.30;;;;;;5075265;28;20037;-70
2023/04/18 03:08:33;;;;;;;6.53;3.55;;;14.50;71.00;;;;;;5075457;28;20028;-70
2023/04/18 03:10:59;;;;;;;6.72;3.80;;;14.50;71.10;;;;;;5075166;28;20039;-70
2023/04/18 03:13:25;;;;;;;6.30;3.65;;;14.60;71.40;;;;;;5075059;28;20043;-69
2023/04/18 03:15:50;;;;;;;6.35;3.75;;;14.60;71.20;;;;;;5075046;28;20055;-70
2023/04/18 03:18:16;;;;;;;6.78;3.78;;;14.60;71.40;;;;;;5074950;28;20115;-69
2023/04/18 03:20:42;;;;;;;6.85;3.70;;;14.60;71.40;;;;;;5074895;28;20040;-69
2023/04/18 03:23:07;;;;;;;5.50;3.67;;;14.60;71.40;;;;;;5074901;28;20048;-71
2023/04/18 03:25:33;;;;;;;7.68;4.00;;;14.60;71.70;;;;;;5074924;28;20036;-69
2023/04/18 03:27:59;;;;;;;6.53;4.00;;;14.60;72.00;;;;;;5074561;28;20032;-71
2023/04/18 03:30:25;;;;;;;5.28;3.88;;;14.50;72.20;;;;;;5074697;28;20032;-69
2023/04/18 03:32:51;;;;;;;10.13;3.80;;;14.50;72.30;;;;;;5074603;28;20067;-70
2023/04/18 03:35:17;;;;;;;7.13;4.00;;;14.50;72.60;;;;;;5074577;28;20048;-71
2023/04/18 03:37:43;;;;;;;7.72;4.68;;;14.50;72.90;;;;;;5074546;28;20035;-71
2023/04/18 03:40:09;;;;;;;6.75;4.38;;;14.40;73.20;;;;;;5074351;28;20387;-70
2023/04/18 03:42:35;;;;;;;8.10;4.28;;;14.40;73.50;;;;;;5074541;28;20070;-70
2023/04/18 03:45:01;;;;;;;9.55;4.25;;;14.40;73.60;;;;;;5074537;28;20029;-71
2023/04/18 03:47:28;;;;;;;7.82;4.30;;;14.40;73.60;;;;;;5074542;28;20115;-69
2023/04/18 03:49:53;;;;;;;7.38;4.20;;;14.40;74.00;;;;;;5074608;28;20385;-70
2023/04/18 03:52:19;;;;;;;7.65;5.38;;;14.40;73.80;;;;;;5073713;28;20032;-70
2023/04/18 03:54:45;;;;;;;8.00;4.80;;;14.30;73.70;;;;;;5074201;28;20406;-70
2023/04/18 03:57:10;;;;;;;6.60;4.35;;;14.30;74.00;;;;;;5074256;28;20113;-70
2023/04/18 03:59:36;;;;;;;8.25;5.15;;;14.30;73.80;;;;;;5074324;28;20032;-70
2023/04/18 04:02:02;;;;;;;7.43;4.88;;;14.30;73.90;;;;;;5074217;28;20040;-70
2023/04/18 04:04:27;;;;;;;6.15;4.05;;;14.30;73.70;;;;;;5074150;28;20033;-71
2023/04/18 04:06:53;;;;;;;5.90;3.63;;;14.30;73.70;;;;;;5074143;28;20111;-70
2023/04/18 04:09:19;;;;;;;9.52;4.97;;;14.30;73.90;;;;;;5073941;28;20029;-69
2023/04/18 04:11:45;;;;;;;6.38;4.35;;;14.30;73.90;;;;;;5073923;28;20036;-70
2023/04/18 04:14:10;;;;;;;5.97;3.90;;;14.30;73.90;;;;;;5073792;28;20029;-71
2023/04/18 04:16:36;;;;;;;6.15;4.15;;;14.40;74.10;;;;;;5073901;28;20044;-70
2023/04/18 04:19:03;;;;;;;10.52;5.45;;;14.40;73.80;;;;;;5073802;28;20075;-69
2023/04/18 04:21:30;;;;;;;7.35;4.78;;;14.40;73.70;;;;;;5074194;28;20442;-71
2023/04/18 04:23:56;;;;;;;8.32;5.45;;;14.40;73.60;;;;;;5073777;28;20130;-70
2023/04/18 04:26:22;;;;;;;7.80;5.03;;;14.40;73.50;;;;;;5073773;28;20032;-69
2023/04/18 04:28:48;;;;;;;8.88;5.15;;;14.40;73.40;;;;;;5073517;28;20397;-69
2023/04/18 04:31:15;;;;;;;7.18;4.28;;;14.30;73.50;;;;;;5038903;28;20120;-70
2023/04/18 04:33:41;;;;;;;7.32;4.20;;;14.30;73.30;;;;;;5073586;28;20102;-69
2023/04/18 04:36:07;;;;;;;7.75;4.63;;;14.30;73.20;;;;;;5073176;28;20036;-70
2023/04/18 04:38:37;;;;;;;6.97;4.32;;;14.20;73.20;;;;;;5073477;28;20477;-69
2023/04/18 04:41:05;;;;;;;6.22;4.25;;;14.20;73.30;;;;;;5073473;28;20505;-71
2023/04/18 04:43:31;;;;;;;8.70;4.10;;;14.10;73.40;;;;;;5073170;28;20024;-70
2023/04/18 04:45:57;;;;;;;7.03;4.25;;;14.10;73.40;;;;;;5073541;28;20120;-70
2023/04/18 04:48:23;;;;;;;5.80;4.35;;;14.20;73.40;;;;;;5073248;28;20445;-70
2023/04/18 04:50:55;;;;;;;7.28;3.95;;;14.20;73.40;;;;;;5073120;28;20036;-70
2023/04/18 04:53:21;;;;;;;7.68;4.30;;;14.30;73.40;;;;;;5073209;28;20405;-71
2023/04/18 04:55:47;;;;;;;9.07;4.40;;;14.30;73.40;;;;;;5072937;28;20053;-70
2023/04/18 04:58:13;;;;;;;6.65;4.90;;;14.40;72.90;;;;;;5073020;28;20456;-70
2023/04/18 05:00:39;;;;;;;6.95;4.22;;;14.40;72.70;;;;;;5072955;28;20068;-71
2023/04/18 05:03:05;;;;;;;10.80;6.07;;;14.50;72.30;;;;;;5073027;28;20048;-71
2023/04/18 05:05:31;;;;;;;9.50;5.75;;;14.50;72.20;;;;;;5054979;28;20397;-70
2023/04/18 05:07:57;;;;;;;8.02;5.03;;;14.50;72.00;;;;;;5072827;28;20033;-70
2023/04/18 05:10:23;;;;;;;7.28;4.55;;;14.60;71.90;;;;;;5072822;28;20074;-69
2023/04/18 05:12:48;;;;;;;7.82;4.60;;;14.60;71.70;;;;;;5072798;28;20039;-71
2023/04/18 05:15:15;;;;;;;7.65;4.25;;;14.60;71.70;;;;;;5054596;28;20505;-70
2023/04/18 05:17:41;;;;;;;8.00;3.97;;;14.70;71.50;;;;;;5072852;28;20058;-70
2023/04/18 05:20:07;;;;;;;8.65;4.20;;;14.60;71.50;;;;;;5072511;28;20071;-70
2023/04/18 05:22:33;;;;;;;7.10;4.22;;;14.70;71.30;;;;;;5072313;28;20502;-70
2023/04/18 05:24:58;;;;;;;6.85;4.18;;;14.70;71.40;;;;;;5072256;28;20064;-71
2023/04/18 05:27:26;;;;;;;6.07;3.70;;;14.70;71.30;;;;;;5072197;28;20032;-70
2023/04/18 05:29:52;;;;;;;8.20;4.03;;;14.70;71.10;;;;;;5072607;28;20040;-70
2023/04/18 05:32:18;;;;;;;9.52;4.38;;;14.60;71.00;;;;;;5072428;28;20043;-71
2023/04/18 05:34:44;;;;;;;9.23;4.60;;;14.60;71.20;;;;;;5072101;28;20046;-71
2023/04/18 05:37:10;;;;;;;8.93;4.30;;;14.60;71.20;;;;;;5071971;28;20037;-71
2023/04/18 05:39:36;;;;;;;8.60;4.72;;;14.70;71.20;;;;;;5072346;28;20048;-70
2023/04/18 05:42:02;;;;;;;8.27;4.70;;;14.70;71.20;;;;;;5072691;28;20209;-71
2023/04/18 05:44:28;;;;;;;7.57;4.90;;;14.60;71.30;;;;;;5072043;28;20029;-70
2023/04/18 05:46:54;;;;;;;9.52;5.13;;;14.60;71.30;;;;;;5071935;28;20033;-69
2023/04/18 05:49:20;;;;;;;9.10;4.90;;;14.70;71.20;;;;;;5072197;28;20102;-71
2023/04/18 05:51:48;;;;;;;7.60;4.80;;;14.70;71.40;;;;;;5054059;28;20130;-70
2023/04/18 05:54:14;;;;;;;9.35;4.80;;;14.80;71.20;;;;;;5054794;28;20142;-71
2023/04/18 05:56:40;;;;;;;10.18;4.47;;;14.90;71.00;;;;;;5072068;28;20055;-70
2023/04/18 05:59:06;;;;;;;6.60;4.10;;;15.00;70.60;;;;;;5072130;28;20029;-70
2023/04/18 06:01:32;;;;;;;9.88;4.38;;;15.00;70.40;;;;;;5072094;28;20115;-70
2023/04/18 06:03:58;;;;;;;11.38;4.75;;;14.90;70.40;;;;;;5072112;28;20029;-71
2023/04/18 06:06:23;;;;;;;9.02;4.57;;;14.90;70.30;;;;;;5071817;28;20032;-69
2023/04/18 06:08:49;;;;;;;11.75;5.35;;;14.90;70.30;;;;;;5072299;28;20107;-71
2023/04/18 06:11:15;;;;;;;11.65;5.20;;;15.10;70.20;;;;;;5072320;28;20032;-70
2023/04/18 06:13:42;;;;;;;11.52;5.05;;;15.20;70.00;;;;;;5072065;28;20162;-70
2023/04/18 06:16:07;;;;;;;7.47;4.78;;;15.30;69.70;;;;;;5074875;28;20045;-71
2023/04/18 06:18:33;;;;;;;12.80;4.70;;;15.40;69.40;;;;;;5075936;28;20032;-70
2023/04/18 06:20:59;;;;;;;8.85;4.82;;;15.50;69.20;;;;;;5076111;28;20038;-70
2023/04/18 06:23:25;;;;;;;7.65;4.47;;;15.40;68.90;;;;;;5076185;28;20036;-71
2023/04/18 06:25:50;;;;;;;7.28;4.38;;;15.40;68.80;;;;;;5075795;28;20036;-70
2023/04/18 06:28:16;;;;;;;6.70;4.15;;;15.40;68.90;;;;;;5075724;28;20086;-71
2023/04/18 06:30:42;;;;;;;8.88;4.13;;;15.30;68.90;;;;;;5075939;28;20107;-69
2023/04/18 06:33:10;;;;;;;9.50;4.53;;;15.30;68.80;;;;;;5075541;28;20036;-70
2023/04/18 06:35:36;;;;;;;8.73;4.45;;;15.30;69.30;;;;;;5075563;28;20047;-69
2023/04/18 06:38:02;;;;;;;11.27;4.85;;;15.30;68.80;;;;;;5075482;28;20029;-70
2023/04/18 06:40:28;;;;;;;7.82;4.68;;;15.40;68.50;;;;;;5075221;28;20098;-70
2023/04/18 06:42:54;;;;;;;8.90;4.93;;;15.50;68.60;;;;;;5075180;28;20412;-70
2023/04/18 06:45:20;;;;;;;6.30;4.28;;;15.60;68.50;;;;;;5075165;28;20446;-71
2023/04/18 06:47:46;;;;;;;8.93;4.60;;;15.60;68.10;;;;;;5075216;28;20043;-72
2023/04/18 06:50:13;;;;;;;9.52;5.30;;;15.70;68.20;;;;;;5075372;28;20036;-70
2023/04/18 06:52:44;;;;;;;9.32;4.82;;;15.80;68.10;;;;;;5075412;28;20032;-71
2023/04/18 06:55:11;;;;;;;9.55;5.15;;;15.90;68.00;;;;;;5075205;28;20127;-71
2023/04/18 06:57:38;;;;;;;7.75;4.80;;;15.90;67.60;;;;;;5075552;28;20078;-70
2023/04/18 07:00:04;;;;;;;8.63;4.32;;;15.90;67.70;;;;;;5075556;28;20036;-72
2023/04/18 07:02:30;;;;;;;7.50;4.88;;;16.00;67.80;;;;;;5075276;28;20119;-69
2023/04/18 07:04:56;;;;;;;10.52;4.70;;;16.20;67.60;;;;;;5075164;28;20071;-71
2023/04/18 07:07:22;;;;;;;7.95;5.32;;;16.40;67.20;;;;;;5075233;28;20040;-72
2023/04/18 07:09:48;;;;;;;10.38;5.03;;;16.60;66.80;;;;;;5075143;28;20036;-70
2023/04/18 07:12:15;;;;;;;8.98;4.57;;;16.80;66.60;;;;;;5075065;28;20441;-70
2023/04/18 07:14:41;;;;;;;10.07;5.07;;;17.00;66.30;;;;;;5074963;28;20044;-73
2023/04/18 07:17:06;;;;;;;10.50;4.88;;;17.40;66.40;;;;;;5075008;28;20033;-72
2023/04/18 07:19:32;;;;;;;16.15;4.63;;;17.70;66.00;;;;;;5075182;28;20036;-71
2023/04/18 07:21:58;;;;;;;23.75;5.10;;;17.90;65.10;;;;;;5075087;28;20036;-70
2023/04/18 07:24:23;;;;;;;10.88;4.70;;;18.00;64.70;;;;;;5056831;28;20028;-71
2023/04/18 07:26:52;;;;;;;10.98;4.10;;;18.10;64.20;;;;;;5073419;28;20086;-71
2023/04/18 07:29:18;;;;;;;12.10;4.63;;;18.20;63.90;;;;;;5074850;28;20041;-72
2023/04/18 07:31:47;;;;;;;11.98;4.53;;;18.40;63.20;;;;;;5074507;28;20033;-70
2023/04/18 07:34:13;;;;;;;7.93;4.35;;;18.40;62.80;;;;;;5075059;28;20445;-71
2023/04/18 07:36:40;;;;;;;7.63;4.40;;;18.60;63.00;;;;;;5074776;28;20076;-70
2023/04/18 07:39:06;;;;;;;14.52;4.45;;;18.70;61.90;;;;;;5074657;28;20576;-71
2023/04/18 07:41:33;;;;;;;6.90;3.35;;;18.80;61.20;;;;;;5056404;28;20040;-70
2023/04/18 07:44:00;;;;;;;8.65;3.72;;;19.00;61.00;;;;;;5074390;28;20498;-72
2023/04/18 07:46:26;;;;;;;9.70;3.55;;;19.20;60.20;;;;;;5074336;28;20036;-72
2023/04/18 07:48:52;;;;;;;9.40;3.75;;;19.20;59.70;;;;;;5056194;28;20055;-71
2023/04/18 07:51:17;;;;;;;17.00;3.78;;;19.10;59.20;;;;;;5074103;28;20146;-71
2023/04/18 07:53:43;;;;;;;9.90;3.80;;;19.00;59.50;;;;;;5074632;28;20121;-70
2023/04/18 07:56:11;;;;;;;8.90;3.95;;;18.90;59.60;;;;;;5074335;28;20059;-72
2023/04/18 07:58:37;;;;;;;12.90;5.05;;;18.70;59.50;;;;;;5074088;28;20140;-72
2023/04/18 08:01:03;;;;;;;11.40;4.28;;;18.60;59.80;;;;;;5073884;28;20139;-71
2023/04/18 08:03:28;;;;;;;11.85;4.10;;;18.50;60.00;;;;;;5074180;28;20494;-71
2023/04/18 08:05:54;;;;;;;8.23;3.53;;;18.50;60.00;;;;;;5074056;28;20111;-72
2023/04/18 08:08:20;;;;;;;8.40;3.88;;;18.50;59.70;;;;;;5074343;28;20032;-71
2023/04/18 08:10:46;;;;;;;9.82;3.72;;;18.40;59.60;;;;;;5074034;28;20406;-71
2023/04/18 08:13:12;;;;;;;14.00;4.05;;;18.50;59.50;;;;;;5074041;28;20048;-71
2023/04/18 08:15:41;;;;;;;14.18;4.22;;;18.50;59.10;;;;;;5073507;28;20456;-72
2023/04/18 08:18:07;;;;;;;14.25;4.32;;;18.50;58.90;;;;;;5073554;28;20032;-71
2023/04/18 08:20:35;;;;;;;13.82;4.35;;;18.50;58.80;;;;;;5073764;28;20413;-70
2023/04/18 08:23:00;;;;;;;8.98;3.45;;;18.60;58.80;;;;;;5073825;28;20158;-72
2023/04/18 08:25:26;;;;;;;8.07;3.33;;;18.60;58.80;;;;;;5073910;28;20067;-71
2023/04/18 08:27:52;;;;;;;10.38;4.18;;;18.50;58.60;;;;;;5073423;28;20031;-69
2023/04/18 08:30:17;;;;;;;8.55;4.07;;;18.60;59.00;;;;;;5073463;28;20039;-72
2023/04/18 08:32:43;;;;;;;10.80;3.90;;;18.70;58.90;;;;;;5073604;28;20021;-72
2023/04/18 08:35:09;;;;;;;9.73;3.75;;;18.60;58.90;;;;;;5073422;28;20045;-72
2023/04/18 08:37:34;;;;;;;7.05;4.03;;;18.70;59.10;;;;;;5072801;28;20032;-71
2023/04/18 08:40:02;;;;;;;8.00;3.63;;;18.70;58.50;;;;;;5073435;28;20127;-71
2023/04/18 08:42:29;;;;;;;5.20;3.17;;;18.70;58.30;;;;;;5073397;28;20056;-69
2023/04/18 08:44:57;;;;;;;8.63;3.15;;;18.80;58.10;;;;;;5073315;28;20033;-71
2023/04/18 08:47:22;;;;;;;7.35;3.67;;;18.80;58.10;;;;;;5073121;28;20028;-71
2023/04/18 08:49:48;;;;;;;8.98;3.92;;;18.80;58.10;;;;;;5073395;28;20393;-70
2023/04/18 08:52:18;;;;;;;21.55;3.92;;;18.70;58.30;;;;;;5072619;28;20024;-72
2023/04/18 08:54:45;;;;;;;7.43;4.03;;;18.70;58.40;;;;;;5072721;28;20402;-70
2023/04/18 08:57:15;;;;;;;7.50;3.70;;;18.70;58.60;;;;;;5072699;28;20032;-72
2023/04/18 08:59:44;;;;;;;15.45;4.70;;;18.80;58.50;;;;;;5073275;28;20131;-72
2023/04/18 09:02:11;;;;;;;5.70;3.47;;;18.90;58.30;;;;;;5072801;28;20474;-70
2023/04/18 09:04:39;;;;;;;11.70;4.05;;;18.90;58.10;;;;;;5054972;28;20044;-70
2023/04/18 09:07:10;;;;;;;6.78;3.72;;;18.90;58.70;;;;;;5072666;28;20033;-71
2023/04/18 09:09:45;;;;;;;6.78;3.88;;;18.90;58.10;;;;;;5072671;28;20040;-71
2023/04/18 09:12:13;;;;;;;7.82;4.07;;;18.90;58.10;;;;;;5072837;28;20494;-70
2023/04/18 09:14:44;;;;;;;7.05;3.50;;;18.90;58.20;;;;;;5072685;28;20070;-70
2023/04/18 09:17:17;;;;;;;9.90;4.03;;;18.90;58.30;;;;;;5072517;28;20036;-70
2023/04/18 09:19:49;;;;;;;9.20;4.20;;;19.00;58.40;;;;;;5072642;28;20430;-71
2023/04/18 09:22:16;;;;;;;7.60;3.80;;;19.00;58.10;;;;;;5072909;28;20258;-72
2023/04/18 09:24:56;;;;;;;10.45;3.30;;;19.00;57.90;;;;;;5072327;28;20401;-72
2023/04/18 09:27:23;;;;;;;12.88;4.18;;;19.10;57.90;;;;;;5054124;28;20442;-71
2023/04/18 09:29:53;;;;;;;10.70;3.78;;;19.00;57.50;;;;;;5072437;28;20032;-70
2023/04/18 09:32:27;;;;;;;8.50;3.75;;;19.10;57.70;;;;;;5072222;28;20028;-71
2023/04/18 09:35:04;;;;;;;7.22;3.65;;;19.10;57.90;;;;;;5071835;28;20036;-70
2023/04/18 09:37:30;;;;;;;6.93;3.33;;;19.10;57.20;;;;;;5072121;28;20123;-70
2023/04/18 09:39:55;;;;;;;5.82;3.20;;;19.20;57.30;;;;;;5054137;28;20164;-71
2023/04/18 09:42:22;;;;;;;6.15;4.00;;;19.30;57.10;;;;;;5072227;28;20067;-71
2023/04/18 09:44:58;;;;;;;6.72;3.90;;;19.40;57.10;;;;;;5072013;28;20028;-70
2023/04/18 09:47:25;;;;;;;8.05;4.30;;;19.40;57.20;;;;;;5072118;28;20041;-69
2023/04/18 09:49:51;;;;;;;8.38;3.90;;;19.40;57.00;;;;;;5053312;28;20028;-70
2023/04/18 09:52:18;;;;;;;11.32;4.65;;;19.40;57.20;;;;;;5072058;28;20098;-70
2023/04/18 09:54:53;;;;;;;8.30;4.35;;;19.50;56.90;;;;;;5072229;28;20036;-70
2023/04/18 09:57:19;;;;;;;7.13;3.60;;;19.60;57.30;;;;;;5072188;28;20133;-71
2023/04/18 09:59:53;;;;;;;6.70;3.58;;;19.80;56.60;;;;;;5072150;28;20033;-71
2023/04/18 10:02:21;;;;;;;7.93;4.18;;;19.90;56.50;;;;;;5072176;28;20094;-71
2023/04/18 10:04:52;;;;;;;8.40;4.03;;;20.00;56.20;;;;;;5072242;28;20064;-71
2023/04/18 10:07:19;;;;;;;5.53;3.53;;;20.00;56.30;;;;;;5072150;28;20082;-71
2023/04/18 10:09:46;;;;;;;6.03;3.63;;;19.90;55.80;;;;;;5072131;28;20120;-71
2023/04/18 10:12:12;;;;;;;8.68;3.42;;;19.90;55.70;;;;;;5071791;28;20454;-70
2023/04/18 10:14:42;;;;;;;7.05;3.78;;;19.90;55.80;;;;;;5072042;28;20481;-71
2023/04/18 10:17:08;;;;;;;9.70;3.70;;;20.00;55.60;;;;;;5071708;28;20090;-71
2023/04/18 10:19:34;;;;;;;10.57;4.18;;;20.10;55.60;;;;;;5071638;28;20025;-70
2023/04/18 10:22:01;;;;;;;7.38;3.92;;;20.30;55.70;;;;;;5053891;28;20123;-71
2023/04/18 10:24:46;;;;;;;10.40;4.05;;;20.50;55.40;;;;;;5071658;28;20043;-71
2023/04/18 10:27:12;;;;;;;9.35;5.03;;;20.50;55.00;;;;;;5071753;28;20126;-71
2023/04/18 10:29:51;;;;;;;11.23;6.03;;;20.50;54.90;;;;;;5071733;28;20539;-71
2023/04/18 10:32:18;;;;;;;7.80;3.75;;;20.60;54.80;;;;;;5071694;28;20045;-71
2023/04/18 10:34:46;;;;;;;7.05;4.60;;;20.70;54.30;;;;;;5071627;28;20028;-71
2023/04/18 10:37:12;;;;;;;9.68;4.38;;;20.80;54.20;;;;;;5071774;28;20119;-72
2023/04/18 10:39:48;;;;;;;7.03;3.50;;;20.70;54.20;;;;;;5071557;28;20545;-70
2023/04/18 10:42:14;;;;;;;7.68;3.40;;;20.60;53.90;;;;;;5071753;28;20567;-70
2023/04/18 10:44:39;;;;;;;6.63;3.50;;;20.50;54.00;;;;;;5071913;28;20040;-70
2023/04/18 10:47:08;;;;;;;5.00;2.70;;;20.50;53.90;;;;;;5071840;28;20120;-71
2023/04/18 10:49:37;;;;;;;5.68;2.80;;;20.30;53.70;;;;;;5072045;28;20125;-70
2023/04/18 10:52:04;;;;;;;10.02;3.72;;;20.30;53.80;;;;;;5071534;28;20067;-71
2023/04/18 10:54:53;;;;;;;9.18;5.65;;;20.30;54.00;;;;;;5071583;28;20079;-71
2023/04/18 10:57:19;;;;;;;13.02;3.92;;;20.40;53.80;;;;;;5071580;28;20049;-70
2023/04/18 10:59:49;;;;;;;5.95;3.47;;;20.50;53.90;;;;;;5071431;28;20028;-71
2023/04/18 11:02:32;;;;;;;5.63;2.92;;;20.40;53.50;;;;;;5073992;28;20478;-70
2023/04/18 11:05:07;;;;;;;8.15;3.20;;;20.50;53.60;;;;;;5075149;28;20027;-71
2023/04/18 11:07:47;;;;;;;12.05;3.70;;;20.40;53.60;;;;;;5075494;28;20048;-70
2023/04/18 11:10:17;;;;;;;5.78;2.53;;;20.40;53.40;;;;;;5075143;28;20493;-73
2023/04/18 11:12:43;;;;;;;5.70;2.50;;;20.50;53.60;;;;;;5075013;28;20044;-70
2023/04/18 11:15:20;;;;;;;5.25;2.20;;;20.30;53.40;;;;;;5074967;28;20035;-71
2023/04/18 11:17:58;;;;;;;5.65;2.33;;;20.30;53.50;;;;;;5058268;28;20037;-71
2023/04/18 11:20:24;;;;;;;4.63;2.15;;;20.10;53.20;;;;;;5075118;28;20036;-69
2023/04/18 11:22:55;;;;;;;10.27;2.70;;;20.10;53.80;;;;;;5075116;28;20025;-71
2023/04/18 11:25:35;;;;;;;5.20;2.60;;;20.00;53.90;;;;;;5074994;28;20063;-70
2023/04/18 11:28:03;;;;;;;5.22;2.97;;;20.00;54.30;;;;;;5075106;28;20104;-71
2023/04/18 11:30:37;;;;;;;5.70;2.58;;;19.90;54.40;;;;;;5075201;28;20032;-71
2023/04/18 11:33:10;;;;;;;5.15;2.33;;;19.90;54.80;;;;;;5074708;28;20070;-70
2023/04/18 11:35:39;;;;;;;5.25;2.60;;;20.00;54.80;;;;;;5074964;28;20072;-71
2023/04/18 11:38:06;;;;;;;5.70;2.10;;;20.00;55.10;;;;;;5074857;28;20110;-71
2023/04/18 11:40:32;;;;;;;4.30;2.20;;;20.00;55.20;;;;;;5074591;28;20087;-71
2023/04/18 11:43:02;;;;;;;4.93;2.47;;;20.10;55.60;;;;;;5074634;28;20143;-71
2023/04/18 11:45:27;;;;;;;7.10;2.30;;;20.20;55.90;;;;;;5074425;28;20055;-71
2023/04/18 11:47:58;;;;;;;5.05;2.60;;;20.20;56.00;;;;;;5074472;28;20612;-71
2023/04/18 11:50:25;;;;;;;9.68;3.20;;;20.30;55.90;;;;;;5074627;28;20044;-71
2023/04/18 11:52:52;;;;;;;5.65;3.25;;;20.40;56.10;;;;;;5074277;28;20375;-71
2023/04/18 11:55:20;;;;;;;10.07;3.50;;;20.40;56.10;;;;;;5074234;28;20097;-71
2023/04/18 11:57:58;;;;;;;8.32;3.65;;;20.50;56.30;;;;;;5074513;28;20032;-71
2023/04/18 12:00:30;;;;;;;13.02;5.88;;;20.60;56.20;;;;;;5074100;28;20039;-70
2023/04/18 12:02:57;;;;;;;10.90;7.15;;;20.80;56.90;;;;;;5074213;28;20041;-71
2023/04/18 12:05:28;;;;;;;12.10;6.65;;;20.80;57.40;;;;;;5074126;28;20478;-71
2023/04/18 12:07:54;;;;;;;10.90;5.43;;;20.90;57.80;;;;;;5073832;28;20042;-70
2023/04/18 12:10:27;;;;;;;12.38;5.60;;;20.90;57.80;;;;;;5073659;28;20481;-70
2023/04/18 12:13:06;;;;;;;7.70;4.72;;;20.90;58.10;;;;;;5073174;28;20681;-69
2023/04/18 12:15:32;;;;;;;12.07;4.38;;;21.00;58.20;;;;;;5073570;28;20106;-71
2023/04/18 12:18:02;;;;;;;6.60;3.53;;;21.10;58.00;;;;;;5073651;28;20025;-71
2023/04/18 12:20:44;;;;;;;7.90;3.63;;;21.30;57.80;;;;;;5055549;28;20110;-70
2023/04/18 12:23:28;;;;;;;6.82;3.53;;;21.50;57.30;;;;;;5073433;28;20024;-71
2023/04/18 12:25:57;;;;;;;;;;;21.60;57.70;;;;;;5073648;28;20539;-73
2023/04/18 12:28:25;;;;;;;5.53;2.50;;;21.60;56.50;;;;;;5073298;28;19977;-71
2023/04/18 12:30:50;;;;;;;5.00;2.50;;;21.60;57.10;;;;;;5073376;28;20041;-69
2023/04/18 12:33:16;;;;;;;6.45;2.42;;;21.60;56.50;;;;;;5073208;28;20052;-70
2023/04/18 12:35:42;;;;;;;6.40;1.95;;;21.60;56.30;;;;;;5073317;28;20126;-71
2023/04/18 12:38:07;;;;;;;2.35;1.50;;;21.50;55.90;;;;;;5073094;28;20074;-71
2023/04/18 12:40:33;;;;;;;5.30;1.70;;;21.50;55.30;;;;;;5073216;28;20061;-71
2023/04/18 12:42:59;;;;;;;4.03;1.70;;;21.40;55.20;;;;;;5073457;28;20047;-72
2023/04/18 12:45:24;;;;;;;4.70;1.60;;;21.30;55.60;;;;;;5073167;28;20074;-70